createdAt,value
2018-09-29T00:00:09.708Z,76.27
2018-09-29T00:01:19.209Z,75.98
2018-09-29T00:02:29.238Z,76.08
2018-09-29T00:03:38.997Z,76.08
2018-09-29T00:04:48.515Z,75.79
2018-09-29T00:05:58.454Z,75.04
2018-09-29T00:07:07.675Z,75.23
2018-09-29T00:08:17.714Z,74.95
2018-09-29T00:09:27.208Z,75.23
2018-09-29T00:10:36.975Z,75.51
2018-09-29T00:11:46.468Z,75.04
2018-09-29T00:12:56.497Z,75.36
2018-09-29T00:14:05.989Z,75.17
2018-09-29T00:15:15.770Z,74.79
2018-09-29T00:16:25.882Z,74.98
2018-09-29T00:17:35.775Z,74.98
2018-09-29T00:18:45.536Z,75.26
2018-09-29T00:19:55.027Z,75.55
2018-09-29T00:21:04.251Z,75.36
2018-09-29T00:22:14.010Z,76.31
2018-09-29T00:23:23.556Z,75.84
2018-09-29T00:24:33.315Z,76.31
2018-09-29T00:25:43.345Z,76.03
2018-09-29T00:26:53.378Z,75.74
2018-09-29T00:28:03.413Z,76.21
2018-09-29T00:29:13.491Z,76.78
2018-09-29T00:30:22.981Z,77.64
2018-09-29T00:31:33.015Z,77.59
2018-09-29T00:32:43.041Z,77.4
2018-09-29T00:33:52.806Z,77.73
2018-09-29T00:35:02.889Z,77.64
2018-09-29T00:36:12.652Z,78.07
2018-09-29T00:37:22.409Z,78.07
2018-09-29T00:38:32.439Z,78.26
2018-09-29T00:39:42.467Z,78.07
2018-09-29T00:40:51.962Z,78.26
2018-09-29T00:42:01.994Z,78.07
2018-09-29T00:43:11.758Z,77.88
2018-09-29T00:44:21.248Z,78.54
2018-09-29T00:45:31.276Z,78.26
2018-09-29T00:46:41.356Z,78.16
2018-09-29T00:47:51.391Z,77.69
2018-09-29T00:49:01.423Z,77.4
2018-09-29T00:50:10.651Z,77.22
2018-09-29T00:51:20.142Z,77.35
2018-09-29T00:52:30.218Z,77.4
2018-09-29T00:53:39.976Z,77.25
2018-09-29T00:54:50.008Z,76.31
2018-09-29T00:56:00.034Z,76.74
2018-09-29T00:57:10.072Z,76.68
2018-09-29T00:58:19.836Z,76.4
2018-09-29T00:59:29.872Z,76.97
2018-09-29T01:00:39.633Z,76.59
2018-09-29T01:01:49.658Z,77.03
2018-09-29T01:02:59.426Z,77.25
2018-09-29T01:04:09.236Z,75.84
2018-09-29T01:05:19.272Z,75.55
2018-09-29T01:06:29.299Z,75.17
2018-09-29T01:07:39.334Z,75.64
2018-09-29T01:08:49.094Z,75.26
2018-09-29T01:09:58.898Z,75.55
2018-09-29T01:11:08.927Z,76.03
2018-09-29T01:12:18.418Z,76.97
2018-09-29T01:13:28.449Z,77.45
2018-09-29T01:14:38.209Z,77.25
2018-09-29T01:15:47.977Z,77.45
2018-09-29T01:16:57.526Z,77.73
2018-09-29T01:18:07.290Z,77.45
2018-09-29T01:19:17.325Z,77.25
2018-09-29T01:20:27.082Z,77.54
2018-09-29T01:21:36.574Z,77.64
2018-09-29T01:22:46.329Z,77.35
2018-09-29T01:23:56.093Z,77.25
2018-09-29T01:25:06.128Z,76.31
2018-09-29T01:26:15.620Z,75.74
2018-09-29T01:27:25.654Z,75.36
2018-09-29T01:28:34.609Z,73.84
2018-09-29T01:29:44.689Z,73.37
2018-09-29T01:30:54.719Z,72.42
2018-09-29T01:32:04.223Z,71.47
2018-09-29T01:33:14.259Z,71.57
2018-09-29T01:34:24.289Z,71.66
2018-09-29T01:35:34.050Z,72.71
2018-09-29T01:36:43.549Z,73.75
2018-09-29T01:37:53.316Z,73.94
2018-09-29T01:39:03.344Z,72.61
2018-09-29T01:40:13.370Z,72.52
2018-09-29T01:41:23.392Z,72.33
2018-09-29T01:42:33.417Z,74.22
2018-09-29T01:43:43.445Z,73.94
2018-09-29T01:44:53.202Z,72.8
2018-09-29T01:46:03.013Z,72.99
2018-09-29T01:47:13.036Z,72.14
2018-09-29T01:48:23.057Z,71.28
2018-09-29T01:49:32.821Z,71.95
2018-09-29T01:50:42.895Z,70.81
2018-09-29T01:51:52.659Z,70.9
2018-09-29T01:53:02.689Z,72.61
2018-09-29T01:54:12.715Z,73.03
2018-09-29T01:55:21.668Z,74.16
2018-09-29T01:56:31.532Z,74.07
2018-09-29T01:57:41.296Z,73.12
2018-09-29T01:58:51.323Z,72.27
2018-09-29T02:00:01.356Z,71.95
2018-09-29T02:01:11.395Z,71.85
2018-09-29T02:02:21.164Z,73.08
2018-09-29T02:03:31.199Z,72.99
2018-09-29T02:04:41.229Z,72.45
2018-09-29T02:05:50.450Z,72.8
2018-09-29T02:07:00.208Z,73.46
2018-09-29T02:08:10.163Z,73.46
2018-09-29T02:09:19.659Z,73.94
2018-09-29T02:10:29.690Z,74.07
2018-09-29T02:11:39.460Z,74.88
2018-09-29T02:12:49.236Z,73.97
2018-09-29T02:13:59.318Z,73.97
2018-09-29T02:15:08.822Z,73.41
2018-09-29T02:16:18.627Z,72.55
2018-09-29T02:17:28.653Z,73.31
2018-09-29T02:18:38.146Z,73.41
2018-09-29T02:19:47.910Z,72.42
2018-09-29T02:20:57.668Z,72.42
2018-09-29T02:22:07.425Z,72.89
2018-09-29T02:23:17.183Z,73.12
2018-09-29T02:24:26.944Z,72.33
2018-09-29T02:25:36.771Z,72.23
2018-09-29T02:26:46.262Z,72.45
2018-09-29T02:27:56.300Z,73.08
2018-09-29T02:29:06.229Z,73.03
2018-09-29T02:30:16.006Z,73.75
2018-09-29T02:31:26.600Z,74.16
2018-09-29T02:32:36.431Z,74.41
2018-09-29T02:33:46.191Z,74.13
2018-09-29T02:34:56.234Z,74.88
2018-09-29T02:36:05.458Z,74.92
2018-09-29T02:37:15.281Z,75.26
2018-09-29T02:38:25.326Z,75.55
2018-09-29T02:39:35.084Z,75.36
2018-09-29T02:40:44.853Z,73.94
2018-09-29T02:41:54.615Z,73.94
2018-09-29T02:43:04.441Z,73.75
2018-09-29T02:44:13.945Z,73.84
2018-09-29T02:45:23.976Z,73.46
2018-09-29T02:46:34.024Z,73.27
2018-09-29T02:47:44.050Z,73.65
2018-09-29T02:48:54.148Z,73.37
2018-09-29T02:50:03.923Z,73.41
2018-09-29T02:51:13.424Z,73.37
2018-09-29T02:52:23.201Z,73.97
2018-09-29T02:53:32.726Z,73.46
2018-09-29T02:54:42.759Z,73.12
2018-09-29T02:55:52.793Z,72.89
2018-09-29T02:57:02.837Z,72.93
2018-09-29T02:58:12.603Z,73.37
2018-09-29T02:59:22.098Z,72.89
2018-09-29T03:00:31.659Z,72.61
2018-09-29T03:01:41.431Z,72.93
2018-09-29T03:02:51.462Z,72.14
2018-09-29T03:04:01.515Z,71.03
2018-09-29T03:05:11.291Z,70.94
2018-09-29T03:06:21.051Z,70.56
2018-09-29T03:07:31.084Z,70.84
2018-09-29T03:08:40.857Z,70.65
2018-09-29T03:09:50.894Z,70.65
2018-09-29T03:11:00.976Z,70.94
2018-09-29T03:12:10.481Z,70.94
2018-09-29T03:13:20.248Z,71.41
2018-09-29T03:14:30.296Z,70.56
2018-09-29T03:15:40.069Z,70.47
2018-09-29T03:16:49.297Z,70.37
2018-09-29T03:17:59.330Z,70.75
2018-09-29T03:19:08.618Z,70.56
2018-09-29T03:20:18.819Z,70.75
2018-09-29T03:21:28.588Z,70.65
2018-09-29T03:22:38.632Z,70.94
2018-09-29T03:23:48.767Z,70.37
2018-09-29T03:24:58.797Z,70.56
2018-09-29T03:26:08.562Z,70.75
2018-09-29T03:27:18.592Z,70.65
2018-09-29T03:28:28.626Z,70.84
2018-09-29T03:29:38.175Z,70.84
2018-09-29T03:30:48.003Z,70.56
2018-09-29T03:31:58.202Z,71.98
2018-09-29T03:33:08.257Z,72.08
2018-09-29T03:34:18.298Z,71.41
2018-09-29T03:35:28.337Z,71.6
2018-09-29T03:36:38.111Z,71.6
2018-09-29T03:37:47.880Z,71.41
2018-09-29T03:38:57.374Z,71.32
2018-09-29T03:40:07.138Z,71.32
2018-09-29T03:41:17.170Z,71.51
2018-09-29T03:42:26.666Z,71.41
2018-09-29T03:43:36.694Z,72.27
2018-09-29T03:44:46.470Z,71.8
2018-09-29T03:45:56.519Z,72.08
2018-09-29T03:47:06.015Z,72.08
2018-09-29T03:48:16.049Z,72.08
2018-09-29T03:49:26.096Z,71.8
2018-09-29T03:50:36.129Z,72.17
2018-09-29T03:51:45.619Z,72.17
2018-09-29T03:52:55.119Z,72.27
2018-09-29T03:54:04.913Z,72.08
2018-09-29T03:55:14.951Z,71.89
2018-09-29T03:56:24.988Z,71.22
2018-09-29T03:57:35.042Z,71.89
2018-09-29T03:58:44.818Z,72.17
2018-09-29T03:59:54.849Z,72.27
2018-09-29T04:01:04.668Z,72.08
2018-09-29T04:02:14.702Z,71.7
2018-09-29T04:03:24.742Z,71.8
2018-09-29T04:04:34.510Z,72.17
2018-09-29T04:05:44.552Z,71.89
2018-09-29T04:06:54.060Z,72.08
2018-09-29T04:08:03.830Z,71.89
2018-09-29T04:09:13.870Z,72.27
2018-09-29T04:10:23.964Z,72.27
2018-09-29T04:11:34.003Z,72.17
2018-09-29T04:12:44.038Z,72.36
2018-09-29T04:13:53.576Z,72.55
2018-09-29T04:15:03.854Z,72.4
2018-09-29T04:16:13.897Z,72.49
2018-09-29T04:17:23.934Z,72.08
2018-09-29T04:18:33.699Z,72.11
2018-09-29T04:19:43.725Z,72.11
2018-09-29T04:20:53.755Z,72.21
2018-09-29T04:22:03.572Z,72.59
2018-09-29T04:23:13.065Z,72.02
2018-09-29T04:24:22.836Z,72.11
2018-09-29T04:25:32.590Z,72.21
2018-09-29T04:26:42.355Z,71.83
2018-09-29T04:27:52.430Z,72.21
2018-09-29T04:29:02.459Z,72.11
2018-09-29T04:30:12.228Z,72.11
2018-09-29T04:31:22.265Z,71.83
2018-09-29T04:32:32.304Z,71.73
2018-09-29T04:33:42.348Z,71.26
2018-09-29T04:34:52.376Z,71.17
2018-09-29T04:36:02.400Z,71.17
2018-09-29T04:37:12.428Z,71.73
2018-09-29T04:38:22.460Z,72.02
2018-09-29T04:39:31.734Z,71.92
2018-09-29T04:40:41.523Z,71.36
2018-09-29T04:41:51.015Z,71.55
2018-09-29T04:43:00.823Z,71.55
2018-09-29T04:44:11.108Z,71.92
2018-09-29T04:45:21.196Z,72.11
2018-09-29T04:46:31.236Z,72.02
2018-09-29T04:47:41.268Z,71.73
2018-09-29T04:48:51.302Z,71.92
2018-09-29T04:50:00.801Z,71.36
2018-09-29T04:51:10.622Z,71.36
2018-09-29T04:52:20.383Z,71.36
2018-09-29T04:53:30.410Z,71.36
2018-09-29T04:54:40.168Z,71.92
2018-09-29T04:55:49.933Z,71.55
2018-09-29T04:57:00.015Z,71.64
2018-09-29T04:58:09.513Z,72.02
2018-09-29T04:59:19.280Z,72.11
2018-09-29T05:00:29.045Z,72.3
2018-09-29T05:01:39.084Z,72.3
2018-09-29T05:02:48.846Z,71.83
2018-09-29T05:03:58.362Z,71.92
2018-09-29T05:05:08.122Z,72.11
2018-09-29T05:06:18.155Z,72.49
2018-09-29T05:07:27.776Z,72.59
2018-09-29T05:08:37.533Z,72.88
2018-09-29T05:09:47.293Z,72.49
2018-09-29T05:10:57.329Z,72.3
2018-09-29T05:12:07.089Z,73.16
2018-09-29T05:13:16.850Z,72.4
2018-09-29T05:14:26.884Z,72.4
2018-09-29T05:15:36.914Z,72.34
2018-09-29T05:16:46.964Z,72.4
2018-09-29T05:17:56.997Z,73.1
2018-09-29T05:19:06.496Z,73.19
2018-09-29T05:20:16.254Z,72.88
2018-09-29T05:21:26.288Z,72.97
2018-09-29T05:22:36.055Z,72.4
2018-09-29T05:23:45.816Z,73.19
2018-09-29T05:24:55.043Z,73.29
2018-09-29T05:26:05.175Z,73.38
2018-09-29T05:27:15.203Z,72.97
2018-09-29T05:28:24.971Z,73.38
2018-09-29T05:29:34.738Z,73.1
2018-09-29T05:30:44.592Z,72.88
2018-09-29T05:31:54.186Z,73.1
2018-09-29T05:33:03.951Z,72.91
2018-09-29T05:34:13.450Z,73.19
2018-09-29T05:35:22.688Z,73.1
2018-09-29T05:36:32.449Z,72.91
2018-09-29T05:37:41.979Z,73.44
2018-09-29T05:38:51.751Z,73.76
2018-09-29T05:40:01.516Z,74.15
2018-09-29T05:41:11.279Z,73.29
2018-09-29T05:42:21.349Z,72.91
2018-09-29T05:43:31.431Z,73
2018-09-29T05:44:41.458Z,73.1
2018-09-29T05:45:50.952Z,72.44
2018-09-29T05:47:00.974Z,73.1
2018-09-29T05:48:11.079Z,72.81
2018-09-29T05:49:21.505Z,73.1
2018-09-29T05:50:30.998Z,73.38
2018-09-29T05:51:40.758Z,73.1
2018-09-29T05:52:50.524Z,72.34
2018-09-29T05:54:00.377Z,73.38
2018-09-29T05:55:10.646Z,73.57
2018-09-29T05:56:20.673Z,73.38
2018-09-29T05:57:30.437Z,73.48
2018-09-29T05:58:40.519Z,73.19
2018-09-29T05:59:50.286Z,73.86
2018-09-29T06:00:59.831Z,73.67
2018-09-29T06:02:09.602Z,73.48
2018-09-29T06:03:19.099Z,74.15
2018-09-29T06:04:28.863Z,74.15
2018-09-29T06:05:39.088Z,73.38
2018-09-29T06:06:48.963Z,73.38
2018-09-29T06:07:59.076Z,73.57
2018-09-29T06:09:08.841Z,73.57
2018-09-29T06:10:18.878Z,73.57
2018-09-29T06:11:28.374Z,74.15
2018-09-29T06:12:38.420Z,74.15
2018-09-29T06:13:48.455Z,74.05
2018-09-29T06:14:57.955Z,73.96
2018-09-29T06:16:07.450Z,74.15
2018-09-29T06:17:17.220Z,74.43
2018-09-29T06:18:27.250Z,74.43
2018-09-29T06:19:36.473Z,74.71
2018-09-29T06:20:46.567Z,74.52
2018-09-29T06:21:56.506Z,74.9
2018-09-29T06:23:05.999Z,74.43
2018-09-29T06:24:15.548Z,74.33
2018-09-29T06:25:25.046Z,74.56
2018-09-29T06:26:35.092Z,74.66
2018-09-29T06:27:44.587Z,74.66
2018-09-29T06:28:54.795Z,74.62
2018-09-29T06:30:04.880Z,74.47
2018-09-29T06:31:14.654Z,74.94
2018-09-29T06:32:24.679Z,74.56
2018-09-29T06:33:34.446Z,74.94
2018-09-29T06:34:44.482Z,74.71
2018-09-29T06:35:54.251Z,74.85
2018-09-29T06:37:04.013Z,75.51
2018-09-29T06:38:14.065Z,75.04
2018-09-29T06:39:23.978Z,74.85
2018-09-29T06:40:39.772Z,74.94
2018-09-29T06:41:50.122Z,74.94
2018-09-29T06:42:59.854Z,75.32
2018-09-29T06:44:09.513Z,74.75
2018-09-29T06:45:19.548Z,74.94
2018-09-29T06:46:29.582Z,75.32
2018-09-29T06:47:39.736Z,75.23
2018-09-29T06:48:49.748Z,75.42
2018-09-29T06:49:59.516Z,75.42
2018-09-29T06:51:09.010Z,75.32
2018-09-29T06:52:19.037Z,75.32
2018-09-29T06:53:28.796Z,75.13
2018-09-29T06:54:39.062Z,75.51
2018-09-29T06:55:49.148Z,75.04
2018-09-29T06:56:58.915Z,74.75
2018-09-29T06:58:08.687Z,74.94
2018-09-29T06:59:18.767Z,75.32
2018-09-29T07:00:28.799Z,75.32
2018-09-29T07:01:38.608Z,75.04
2018-09-29T07:02:48.126Z,75.51
2018-09-29T07:03:57.943Z,75.32
2018-09-29T07:05:07.973Z,74.94
2018-09-29T07:06:18.014Z,75.42
2018-09-29T07:07:27.788Z,75.42
2018-09-29T07:08:37.605Z,75.42
2018-09-29T07:09:47.635Z,74.85
2018-09-29T07:10:59.660Z,75.13
2018-09-29T07:12:08.888Z,75.42
2018-09-29T07:13:18.659Z,75.42
2018-09-29T07:14:28.688Z,75.32
2018-09-29T07:15:38.732Z,74.75
2018-09-29T07:16:48.275Z,74.85
2018-09-29T07:17:58.308Z,75.32
2018-09-29T07:19:07.538Z,74.66
2018-09-29T07:20:17.573Z,75.04
2018-09-29T07:21:27.401Z,74.75
2018-09-29T07:22:37.019Z,74.56
2018-09-29T07:23:46.779Z,75.13
2018-09-29T07:24:56.270Z,74.85
2018-09-29T07:26:05.759Z,74.75
2018-09-29T07:27:15.818Z,75.04
2018-09-29T07:28:25.901Z,75.04
2018-09-29T07:29:35.947Z,74.56
2018-09-29T07:30:45.977Z,74.47
2018-09-29T07:31:55.747Z,74.47
2018-09-29T07:33:05.781Z,74.08
2018-09-29T07:34:15.864Z,74.08
2018-09-29T07:35:25.088Z,73.99
2018-09-29T07:36:34.842Z,74.51
2018-09-29T07:37:44.349Z,74.47
2018-09-29T07:38:54.382Z,74.18
2018-09-29T07:40:04.581Z,74.12
2018-09-29T07:41:13.827Z,74.12
2018-09-29T07:42:23.857Z,73.74
2018-09-29T07:43:33.625Z,73.65
2018-09-29T07:44:43.119Z,73.46
2018-09-29T07:45:52.938Z,73.65
2018-09-29T07:47:02.966Z,73.65
2018-09-29T07:48:13.000Z,73.27
2018-09-29T07:49:23.214Z,73.74
2018-09-29T07:50:33.249Z,73.74
2018-09-29T07:51:43.357Z,73.65
2018-09-29T07:52:52.581Z,74.12
2018-09-29T07:54:02.611Z,74.22
2018-09-29T07:55:12.104Z,73.55
2018-09-29T07:56:21.874Z,74.12
2018-09-29T07:57:31.957Z,73.84
2018-09-29T07:58:41.715Z,73.93
2018-09-29T07:59:51.496Z,73.84
2018-09-29T08:01:01.263Z,74.22
2018-09-29T08:02:11.030Z,74.31
2018-09-29T08:03:21.072Z,73.46
2018-09-29T08:04:31.113Z,73.84
2018-09-29T08:05:41.141Z,74.12
2018-09-29T08:06:50.907Z,73.46
2018-09-29T08:08:00.669Z,73.46
2018-09-29T08:09:10.484Z,74.31
2018-09-29T08:10:20.509Z,74.31
2018-09-29T08:11:30.544Z,74.31
2018-09-29T08:12:40.574Z,74.03
2018-09-29T08:13:50.339Z,74.79
2018-09-29T08:15:00.154Z,74.03
2018-09-29T08:16:09.920Z,74.31
2018-09-29T08:17:19.995Z,74.6
2018-09-29T08:18:30.024Z,73.84
2018-09-29T08:19:40.059Z,73.36
2018-09-29T08:20:49.876Z,74.12
2018-09-29T08:21:59.914Z,73.65
2018-09-29T08:23:09.681Z,74.12
2018-09-29T08:24:19.233Z,74.12
2018-09-29T08:25:28.659Z,74.82
2018-09-29T08:26:38.754Z,74.98
2018-09-29T08:27:48.517Z,74.22
2018-09-29T08:28:58.281Z,74.79
2018-09-29T08:30:08.045Z,74.98
2018-09-29T08:31:18.090Z,74.79
2018-09-29T08:32:28.356Z,74.51
2018-09-29T08:33:38.450Z,75.64
2018-09-29T08:34:48.480Z,75.36
2018-09-29T08:35:58.506Z,75.55
2018-09-29T08:37:08.268Z,75.55
2018-09-29T08:38:18.317Z,75.45
2018-09-29T08:39:27.811Z,75.26
2018-09-29T08:40:37.581Z,75.64
2018-09-29T08:41:47.341Z,75.93
2018-09-29T08:42:57.111Z,75.55
2018-09-29T08:44:07.208Z,76.21
2018-09-29T08:45:17.287Z,76.31
2018-09-29T08:46:27.322Z,76.5
2018-09-29T08:47:36.882Z,76.59
2018-09-29T08:48:46.919Z,76.97
2018-09-29T08:49:56.951Z,76.4
2018-09-29T08:51:06.708Z,76.5
2018-09-29T08:52:16.745Z,76.97
2018-09-29T08:53:26.662Z,76.5
2018-09-29T08:54:36.558Z,76.59
2018-09-29T08:55:46.594Z,76.78
2018-09-29T08:56:56.621Z,77.17
2018-09-29T08:58:06.381Z,77.64
2018-09-29T08:59:16.160Z,77.26
2018-09-29T09:00:25.936Z,77.36
2018-09-29T09:01:35.694Z,77.45
2018-09-29T09:02:45.454Z,77.45
2018-09-29T09:03:55.564Z,77.64
2018-09-29T09:05:05.318Z,77.17
2018-09-29T09:06:15.078Z,77.64
2018-09-29T09:07:24.849Z,77.55
2018-09-29T09:08:34.877Z,77.36
2018-09-29T09:09:44.375Z,77.77
2018-09-29T09:10:54.175Z,78.02
2018-09-29T09:12:04.219Z,77.3
2018-09-29T09:13:14.298Z,77.11
2018-09-29T09:14:24.057Z,78.06
2018-09-29T09:15:34.084Z,77.68
2018-09-29T09:16:43.884Z,77.49
2018-09-29T09:17:53.774Z,77.87
2018-09-29T09:19:03.279Z,77.68
2018-09-29T09:20:13.325Z,77.58
2018-09-29T09:21:23.091Z,77.58
2018-09-29T09:22:32.852Z,77.49
2018-09-29T09:23:42.714Z,77.49
2018-09-29T09:24:52.963Z,77.68
2018-09-29T09:26:02.999Z,77.68
2018-09-29T09:27:12.780Z,77.77
2018-09-29T09:28:22.867Z,77.58
2018-09-29T09:29:32.896Z,77.2
2018-09-29T09:30:42.744Z,76.73
2018-09-29T09:31:52.511Z,77.87
2018-09-29T09:33:02.559Z,77.58
2018-09-29T09:34:12.607Z,77.97
2018-09-29T09:35:22.098Z,77.68
2018-09-29T09:36:32.132Z,77.39
2018-09-29T09:37:41.624Z,77.97
2018-09-29T09:38:51.114Z,77.68
2018-09-29T09:40:01.147Z,77.11
2018-09-29T09:41:10.917Z,77.3
2018-09-29T09:42:20.678Z,77.3
2018-09-29T09:43:30.794Z,77.68
2018-09-29T09:44:41.231Z,77.11
2018-09-29T09:45:51.262Z,77.01
2018-09-29T09:47:01.290Z,77.49
2018-09-29T09:48:11.059Z,77.68
2018-09-29T09:49:20.876Z,77.3
2018-09-29T09:50:30.782Z,77.58
2018-09-29T09:51:40.015Z,77.39
2018-09-29T09:52:50.049Z,77.49
2018-09-29T09:53:59.817Z,77.91
2018-09-29T09:55:09.851Z,77.62
2018-09-29T09:56:19.087Z,77.62
2018-09-29T09:57:28.847Z,78
2018-09-29T09:58:38.614Z,78.1
2018-09-29T09:59:48.106Z,77.72
2018-09-29T10:00:57.603Z,77.72
2018-09-29T10:02:07.099Z,77.53
2018-09-29T10:03:17.127Z,77.53
2018-09-29T10:04:27.160Z,77.81
2018-09-29T10:05:36.706Z,77.72
2018-09-29T10:06:45.936Z,77.81
2018-09-29T10:07:55.724Z,78.86
2018-09-29T10:09:05.760Z,79.43
2018-09-29T10:10:15.254Z,79.24
2018-09-29T10:11:25.017Z,78.96
2018-09-29T10:12:35.055Z,79.14
2018-09-29T10:13:44.816Z,80.19
2018-09-29T10:14:54.575Z,80.66
2018-09-29T10:16:04.075Z,81.9
2018-09-29T10:17:14.156Z,81.81
2018-09-29T10:18:24.310Z,82.38
2018-09-29T10:19:34.339Z,82.19
2018-09-29T10:20:44.366Z,81.81
2018-09-29T10:21:54.395Z,82.38
2018-09-29T10:23:04.170Z,82.19
2018-09-29T10:24:13.667Z,81.9
2018-09-29T10:25:23.697Z,83.04
2018-09-29T10:26:33.726Z,82.86
2018-09-29T10:27:43.562Z,82.86
2018-09-29T10:28:53.555Z,82.95
2018-09-29T10:30:03.317Z,83.14
2018-09-29T10:31:12.813Z,81.71
2018-09-29T10:32:22.305Z,81.43
2018-09-29T10:33:32.072Z,82
2018-09-29T10:34:41.650Z,81.52
2018-09-29T10:35:51.159Z,80.86
2018-09-29T10:37:01.192Z,80.29
2018-09-29T10:38:11.227Z,80.1
2018-09-29T10:39:21.262Z,80.1
2018-09-29T10:40:31.034Z,80.29
2018-09-29T10:41:40.530Z,80.29
2018-09-29T10:42:50.295Z,80.1
2018-09-29T10:44:00.097Z,80.29
2018-09-29T10:45:10.028Z,80.29
2018-09-29T10:46:20.066Z,80.19
2018-09-29T10:47:30.117Z,80.19
2018-09-29T10:48:39.621Z,80.29
2018-09-29T10:49:49.699Z,79.81
2018-09-29T10:50:59.785Z,79.52
2018-09-29T10:52:09.559Z,80.29
2018-09-29T10:53:19.316Z,80.1
2018-09-29T10:54:29.357Z,80.86
2018-09-29T10:55:39.388Z,80.66
2018-09-29T10:56:49.421Z,80.66
2018-09-29T10:57:59.242Z,80.42
2018-09-29T10:59:08.897Z,79.66
2018-09-29T11:00:19.364Z,80.33
2018-09-29T11:01:29.133Z,79.75
2018-09-29T11:02:39.090Z,79.66
2018-09-29T11:03:49.134Z,79.66
2018-09-29T11:04:59.270Z,79.47
2018-09-29T11:06:08.916Z,78.99
2018-09-29T11:07:18.679Z,79.47
2018-09-29T11:08:28.719Z,79.47
2018-09-29T11:09:38.766Z,78.8
2018-09-29T11:10:48.000Z,78.8
2018-09-29T11:11:57.764Z,78.99
2018-09-29T11:13:07.798Z,78.23
2018-09-29T11:14:17.902Z,78.27
2018-09-29T11:15:27.981Z,78.14
2018-09-29T11:16:37.476Z,77.61
2018-09-29T11:17:47.513Z,77.8
2018-09-29T11:18:57.273Z,77.51
2018-09-29T11:20:07.325Z,77.13
2018-09-29T11:21:17.403Z,77.32
2018-09-29T11:22:27.178Z,77.51
2018-09-29T11:23:36.944Z,77.03
2018-09-29T11:24:46.711Z,76.75
2018-09-29T11:25:56.743Z,76.84
2018-09-29T11:27:06.774Z,76.27
2018-09-29T11:28:16.960Z,76.27
2018-09-29T11:29:26.967Z,75.79
2018-09-29T11:30:37.003Z,76.18
2018-09-29T11:31:47.043Z,76.65
2018-09-29T11:32:59.075Z,75.26
2018-09-29T11:34:08.850Z,75.32
2018-09-29T11:35:18.879Z,75.36
2018-09-29T11:36:28.918Z,75.55
2018-09-29T11:37:38.949Z,75.36
2018-09-29T11:38:48.744Z,74.21
2018-09-29T11:39:58.778Z,73.39
2018-09-29T11:41:08.817Z,72.72
2018-09-29T11:42:18.851Z,73.01
2018-09-29T11:43:28.619Z,73.3
2018-09-29T11:44:38.721Z,73.68
2018-09-29T11:45:49.086Z,73.11
2018-09-29T11:46:58.851Z,72.44
2018-09-29T11:48:08.885Z,71.62
2018-09-29T11:49:18.915Z,70.95
2018-09-29T11:50:28.963Z,70
2018-09-29T11:51:38.993Z,69.71
2018-09-29T11:52:48.766Z,68.88
2018-09-29T11:53:58.804Z,68.88
2018-09-29T11:55:08.574Z,68.26
2018-09-29T11:56:18.781Z,66.92
2018-09-29T11:57:28.942Z,67.65
2018-09-29T11:58:38.710Z,66.92
2018-09-29T11:59:48.475Z,68.22
2018-09-29T12:00:58.250Z,68.98
2018-09-29T12:02:08.501Z,67.3
2018-09-29T12:03:18.780Z,67.83
2018-09-29T12:04:28.548Z,68.6
2018-09-29T12:05:38.582Z,69.08
2018-09-29T12:06:48.664Z,68.88
2018-09-29T12:07:58.834Z,68.76
2018-09-29T12:09:08.893Z,69.62
2018-09-29T12:10:18.934Z,69.81
2018-09-29T12:11:28.969Z,69.52
2018-09-29T12:12:39.004Z,69.9
2018-09-29T12:13:50.821Z,69.43
2018-09-29T12:15:00.761Z,69.27
2018-09-29T12:16:10.529Z,69.52
2018-09-29T12:17:20.563Z,70.95
2018-09-29T12:18:30.594Z,71.14
2018-09-29T12:19:40.406Z,71.52
2018-09-29T12:20:50.175Z,71.81
2018-09-29T12:21:59.947Z,71.52
2018-09-29T12:23:10.010Z,71.58
2018-09-29T12:24:20.047Z,72.44
2018-09-29T12:25:29.542Z,72.16
2018-09-29T12:26:39.577Z,72.06
2018-09-29T12:27:49.074Z,72.25
2018-09-29T12:28:59.105Z,72.53
2018-09-29T12:30:08.878Z,71.96
2018-09-29T12:31:18.658Z,72.25
2018-09-29T12:32:28.689Z,72.44
2018-09-29T12:33:38.726Z,71.3
2018-09-29T12:34:48.499Z,71.3
2018-09-29T12:35:58.264Z,71.23
2018-09-29T12:37:08.598Z,70.92
2018-09-29T12:38:19.677Z,71.2
2018-09-29T12:39:29.444Z,71.04
2018-09-29T12:40:39.476Z,70.95
2018-09-29T12:41:49.258Z,71.23
2018-09-29T12:42:59.301Z,70.95
2018-09-29T12:44:08.531Z,70.95
2018-09-29T12:45:17.819Z,70.95
2018-09-29T12:46:27.582Z,70.76
2018-09-29T12:47:37.559Z,70.95
2018-09-29T12:48:47.987Z,71.33
2018-09-29T12:49:58.023Z,72.28
2018-09-29T12:51:08.151Z,72.06
2018-09-29T12:52:18.184Z,71.2
2018-09-29T12:53:27.415Z,72.44
2018-09-29T12:54:37.187Z,72.34
2018-09-29T12:55:46.959Z,71.96
2018-09-29T12:56:56.727Z,72.25
2018-09-29T12:58:06.224Z,72.25
2018-09-29T12:59:16.261Z,72.25
2018-09-29T13:00:25.502Z,72.44
2018-09-29T13:01:35.543Z,72.53
2018-09-29T13:02:45.579Z,72.63
2018-09-29T13:03:55.350Z,72.82
2018-09-29T13:05:05.265Z,73.21
2018-09-29T13:06:15.510Z,73.39
2018-09-29T13:07:25.007Z,73.3
2018-09-29T13:08:34.782Z,73.58
2018-09-29T13:09:44.819Z,73.87
2018-09-29T13:10:54.634Z,73.58
2018-09-29T13:12:04.079Z,73.3
2018-09-29T13:13:13.843Z,72.72
2018-09-29T13:14:23.343Z,72.82
2018-09-29T13:15:33.387Z,73.11
2018-09-29T13:16:42.913Z,73.14
2018-09-29T13:17:52.603Z,73.01
2018-09-29T13:19:02.371Z,73.11
2018-09-29T13:20:12.407Z,72.76
2018-09-29T13:21:21.912Z,72.28
2018-09-29T13:22:31.956Z,72.48
2018-09-29T13:23:42.028Z,73.33
2018-09-29T13:24:51.790Z,73.14
2018-09-29T13:26:01.818Z,73.52
2018-09-29T13:27:11.309Z,73.33
2018-09-29T13:28:21.357Z,72.09
2018-09-29T13:29:31.229Z,72.19
2018-09-29T13:30:41.613Z,72.28
2018-09-29T13:31:51.748Z,71.62
2018-09-29T13:33:02.189Z,72
2018-09-29T13:34:11.689Z,72.28
2018-09-29T13:35:21.464Z,72.57
2018-09-29T13:36:30.964Z,73.01
2018-09-29T13:37:40.995Z,73.58
2018-09-29T13:38:50.760Z,72.63
2018-09-29T13:40:00.525Z,73.3
2018-09-29T13:41:09.755Z,73.11
2018-09-29T13:42:19.257Z,73.21
2018-09-29T13:43:29.290Z,73.68
2018-09-29T13:44:39.324Z,74.06
2018-09-29T13:45:49.150Z,74.44
2018-09-29T13:46:59.357Z,73.68
2018-09-29T13:48:09.403Z,74.06
2018-09-29T13:49:19.443Z,74.35
2018-09-29T13:50:28.946Z,74.16
2018-09-29T13:51:38.981Z,74.06
2018-09-29T13:52:48.741Z,74.25
2018-09-29T13:53:58.779Z,73.87
2018-09-29T13:55:08.821Z,74.16
2018-09-29T13:56:18.857Z,73.68
2018-09-29T13:57:28.359Z,73.49
2018-09-29T13:58:38.399Z,73.21
2018-09-29T13:59:48.430Z,73.77
2018-09-29T14:00:58.463Z,73.87
2018-09-29T14:02:08.592Z,73.68
2018-09-29T14:03:18.460Z,73.49
2018-09-29T14:04:27.960Z,73.49
2018-09-29T14:05:37.462Z,72.63
2018-09-29T14:06:47.500Z,73.3
2018-09-29T14:07:57.275Z,72.92
2018-09-29T14:09:07.050Z,72.82
2018-09-29T14:10:17.129Z,72.34
2018-09-29T14:11:26.895Z,72.16
2018-09-29T14:12:36.699Z,72.63
2018-09-29T14:13:46.741Z,72.53
2018-09-29T14:14:56.516Z,71.96
2018-09-29T14:16:06.552Z,72.34
2018-09-29T14:17:16.597Z,71.96
2018-09-29T14:18:26.364Z,71.48
2018-09-29T14:19:35.860Z,71.33
2018-09-29T14:20:45.903Z,71.04
2018-09-29T14:21:55.666Z,71.04
2018-09-29T14:23:05.703Z,70.76
2018-09-29T14:24:15.471Z,70.95
2018-09-29T14:25:25.235Z,69.9
2018-09-29T14:26:34.510Z,69.9
2018-09-29T14:27:44.273Z,69.62
2018-09-29T14:28:54.312Z,70
2018-09-29T14:30:04.011Z,71.14
2018-09-29T14:31:14.447Z,70.76
2018-09-29T14:32:24.481Z,70.67
2018-09-29T14:33:33.977Z,70.57
2018-09-29T14:34:43.482Z,70.47
2018-09-29T14:35:52.979Z,70.09
2018-09-29T14:37:03.161Z,70.57
2018-09-29T14:38:13.552Z,69.9
2018-09-29T14:39:23.592Z,70.38
2018-09-29T14:40:33.089Z,69.9
2018-09-29T14:41:42.674Z,69.43
2018-09-29T14:42:52.890Z,68.76
2018-09-29T14:44:02.386Z,68.66
2018-09-29T14:45:12.266Z,68.95
2018-09-29T14:46:22.333Z,67.8
2018-09-29T14:47:32.379Z,68.57
2018-09-29T14:48:42.152Z,68.09
2018-09-29T14:49:52.186Z,67.23
2018-09-29T14:51:01.958Z,67.42
2018-09-29T14:52:12.148Z,68.28
2018-09-29T14:53:22.059Z,67.52
2018-09-29T14:54:31.560Z,67.71
2018-09-29T14:55:41.325Z,66.5
2018-09-29T14:56:51.104Z,64.88
2018-09-29T14:58:00.730Z,64.62
2018-09-29T14:59:10.440Z,64.53
2018-09-29T15:00:20.480Z,64.25
2018-09-29T15:01:30.520Z,64.43
2018-09-29T15:02:40.557Z,64.43